sensor_id;sensor_type;location;lat;lon;timestamp;temperature;humidity
19888;DHT22;10106;51.332;12.336;2023-04-28T00:01:14;7.10;99.90
19888;DHT22;10106;51.332;12.336;2023-04-28T00:03:40;7.10;99.90
19888;DHT22;10106;51.332;12.336;2023-04-28T00:06:06;7.00;99.90
19888;DHT22;10106;51.332;12.336;2023-04-28T00:08:31;7.00;99.90
19888;DHT22;10106;51.332;12.336;2023-04-28T00:10:57;6.90;99.90
19888;DHT22;10106;51.332;12.336;2023-04-28T00:13:22;6.90;99.90
19888;DHT22;10106;51.332;12.336;2023-04-28T00:15:48;6.80;99.90
19888;DHT22;10106;51.332;12.336;2023-04-28T00:18:14;6.80;99.90
19888;DHT22;10106;51.332;12.336;2023-04-28T00:20:39;6.70;99.90
19888;DHT22;10106;51.332;12.336;2023-04-28T00:23:05;6.70;99.90
19888;DHT22;10106;51.332;12.336;2023-04-28T00:25:30;6.60;99.90
19888;DHT22;10106;51.332;12.336;2023-04-28T00:27:56;6.60;99.90
19888;DHT22;10106;51.332;12.336;2023-04-28T00:30:25;6.50;99.90
19888;DHT22;10106;51.332;12.336;2023-04-28T00:32:51;6.50;99.90
19888;DHT22;10106;51.332;12.336;2023-04-28T00:35:16;6.50;99.90
19888;DHT22;10106;51.332;12.336;2023-04-28T00:37:42;6.40;99.90
19888;DHT22;10106;51.332;12.336;2023-04-28T00:40:08;6.40;99.90
19888;DHT22;10106;51.332;12.336;2023-04-28T00:42:33;6.40;99.90
19888;DHT22;10106;51.332;12.336;2023-04-28T00:44:59;6.30;99.90
19888;DHT22;10106;51.332;12.336;2023-04-28T00:47:33;6.30;99.90
19888;DHT22;10106;51.332;12.336;2023-04-28T00:50:01;6.30;99.90
19888;DHT22;10106;51.332;12.336;2023-04-28T00:52:28;6.30;99.90
19888;DHT22;10106;51.332;12.336;2023-04-28T00:54:54;6.30;99.90
19888;DHT22;10106;51.332;12.336;2023-04-28T00:57:20;6.30;99.90
19888;DHT22;10106;51.332;12.336;2023-04-28T00:59:46;6.30;99.90
19888;DHT22;10106;51.332;12.336;2023-04-28T01:02:11;6.30;99.90
19888;DHT22;10106;51.332;12.336;2023-04-28T01:04:46;6.30;99.90
19888;DHT22;10106;51.332;12.336;2023-04-28T01:07:12;6.30;99.90
19888;DHT22;10106;51.332;12.336;2023-04-28T01:09:37;6.30;99.90
19888;DHT22;10106;51.332;12.336;2023-04-28T01:12:03;6.40;99.90
19888;DHT22;10106;51.332;12.336;2023-04-28T01:14:29;6.40;99.90
19888;DHT22;10106;51.332;12.336;2023-04-28T01:16:54;6.40;99.90
19888;DHT22;10106;51.332;12.336;2023-04-28T01:19:20;6.40;99.90
19888;DHT22;10106;51.332;12.336;2023-04-28T01:21:47;6.40;99.90
19888;DHT22;10106;51.332;12.336;2023-04-28T01:24:12;6.50;99.90
19888;DHT22;10106;51.332;12.336;2023-04-28T01:26:38;6.50;99.90
19888;DHT22;10106;51.332;12.336;2023-04-28T01:29:03;6.50;99.90
19888;DHT22;10106;51.332;12.336;2023-04-28T01:31:29;6.50;99.90
19888;DHT22;10106;51.332;12.336;2023-04-28T01:33:55;6.60;99.90
19888;DHT22;10106;51.332;12.336;2023-04-28T01:36:21;6.60;99.90
19888;DHT22;10106;51.332;12.336;2023-04-28T01:38:48;6.70;99.90
19888;DHT22;10106;51.332;12.336;2023-04-28T01:41:14;6.70;99.90
19888;DHT22;10106;51.332;12.336;2023-04-28T01:43:39;6.80;99.90
19888;DHT22;10106;51.332;12.336;2023-04-28T01:46:05;6.80;99.90
19888;DHT22;10106;51.332;12.336;2023-04-28T01:48:30;6.80;99.90
19888;DHT22;10106;51.332;12.336;2023-04-28T01:50:56;6.90;99.90
19888;DHT22;10106;51.332;12.336;2023-04-28T01:53:22;6.90;99.90
19888;DHT22;10106;51.332;12.336;2023-04-28T01:55:47;6.90;99.90
19888;DHT22;10106;51.332;12.336;2023-04-28T01:58:13;6.90;99.90
19888;DHT22;10106;51.332;12.336;2023-04-28T02:00:38;6.80;99.90
19888;DHT22;10106;51.332;12.336;2023-04-28T02:03:04;6.80;99.90
19888;DHT22;10106;51.332;12.336;2023-04-28T02:05:30;6.90;99.90
19888;DHT22;10106;51.332;12.336;2023-04-28T02:07:55;6.80;99.90
19888;DHT22;10106;51.332;12.336;2023-04-28T02:10:21;6.80;99.90
19888;DHT22;10106;51.332;12.336;2023-04-28T02:12:46;6.80;99.90
19888;DHT22;10106;51.332;12.336;2023-04-28T02:15:12;6.80;99.90
19888;DHT22;10106;51.332;12.336;2023-04-28T02:17:38;6.80;99.90
19888;DHT22;10106;51.332;12.336;2023-04-28T02:20:04;6.70;99.90
19888;DHT22;10106;51.332;12.336;2023-04-28T02:22:29;6.70;99.90
19888;DHT22;10106;51.332;12.336;2023-04-28T02:24:55;6.70;99.90
19888;DHT22;10106;51.332;12.336;2023-04-28T02:27:21;6.70;99.90
19888;DHT22;10106;51.332;12.336;2023-04-28T02:29:47;6.70;99.90
19888;DHT22;10106;51.332;12.336;2023-04-28T02:32:12;6.70;99.90
19888;DHT22;10106;51.332;12.336;2023-04-28T02:34:38;6.70;99.90
19888;DHT22;10106;51.332;12.336;2023-04-28T02:37:03;6.70;99.90
19888;DHT22;10106;51.332;12.336;2023-04-28T02:39:29;6.80;99.90
19888;DHT22;10106;51.332;12.336;2023-04-28T02:41:55;6.80;99.90
19888;DHT22;10106;51.332;12.336;2023-04-28T02:44:21;6.80;99.90
19888;DHT22;10106;51.332;12.336;2023-04-28T02:46:47;6.80;99.90
19888;DHT22;10106;51.332;12.336;2023-04-28T02:49:12;6.80;99.90
19888;DHT22;10106;51.332;12.336;2023-04-28T02:51:38;6.80;99.90
19888;DHT22;10106;51.332;12.336;2023-04-28T02:54:04;6.80;99.90
19888;DHT22;10106;51.332;12.336;2023-04-28T02:56:29;6.80;99.90
19888;DHT22;10106;51.332;12.336;2023-04-28T02:58:55;6.80;99.90
19888;DHT22;10106;51.332;12.336;2023-04-28T03:01:21;6.90;99.90
19888;DHT22;10106;51.332;12.336;2023-04-28T03:03:47;6.90;99.90
19888;DHT22;10106;51.332;12.336;2023-04-28T03:06:12;6.90;99.90
19888;DHT22;10106;51.332;12.336;2023-04-28T03:08:38;6.90;99.90
19888;DHT22;10106;51.332;12.336;2023-04-28T03:11:04;6.90;99.90
19888;DHT22;10106;51.332;12.336;2023-04-28T03:13:29;7.00;99.90
19888;DHT22;10106;51.332;12.336;2023-04-28T03:15:55;6.90;99.90
19888;DHT22;10106;51.332;12.336;2023-04-28T03:18:20;7.00;99.90
19888;DHT22;10106;51.332;12.336;2023-04-28T03:20:47;6.90;99.90
19888;DHT22;10106;51.332;12.336;2023-04-28T03:23:12;6.90;99.90
19888;DHT22;10106;51.332;12.336;2023-04-28T03:25:38;6.90;99.90
19888;DHT22;10106;51.332;12.336;2023-04-28T03:28:03;6.90;99.90
19888;DHT22;10106;51.332;12.336;2023-04-28T03:30:29;6.90;99.90
19888;DHT22;10106;51.332;12.336;2023-04-28T03:32:55;6.90;99.90
19888;DHT22;10106;51.332;12.336;2023-04-28T03:35:20;6.90;99.90
19888;DHT22;10106;51.332;12.336;2023-04-28T03:37:46;6.90;99.90
19888;DHT22;10106;51.332;12.336;2023-04-28T03:40:11;6.90;99.90
19888;DHT22;10106;51.332;12.336;2023-04-28T03:42:37;6.90;99.90
19888;DHT22;10106;51.332;12.336;2023-04-28T03:45:03;6.90;99.90
19888;DHT22;10106;51.332;12.336;2023-04-28T03:47:28;6.80;99.90
19888;DHT22;10106;51.332;12.336;2023-04-28T03:49:54;6.90;99.90
19888;DHT22;10106;51.332;12.336;2023-04-28T03:52:19;6.80;99.90
19888;DHT22;10106;51.332;12.336;2023-04-28T03:54:45;6.80;99.90
19888;DHT22;10106;51.332;12.336;2023-04-28T03:57:11;6.80;99.90
19888;DHT22;10106;51.332;12.336;2023-04-28T03:59:37;6.80;99.90
19888;DHT22;10106;51.332;12.336;2023-04-28T04:02:02;6.80;99.90
19888;DHT22;10106;51.332;12.336;2023-04-28T04:04:28;6.80;99.90
19888;DHT22;10106;51.332;12.336;2023-04-28T04:06:53;6.80;99.90
19888;DHT22;10106;51.332;12.336;2023-04-28T04:09:19;6.70;99.90
19888;DHT22;10106;51.332;12.336;2023-04-28T04:11:44;6.70;99.90
19888;DHT22;10106;51.332;12.336;2023-04-28T04:14:10;6.70;99.90
19888;DHT22;10106;51.332;12.336;2023-04-28T04:16:36;6.70;99.90
19888;DHT22;10106;51.332;12.336;2023-04-28T04:19:01;6.80;99.90
19888;DHT22;10106;51.332;12.336;2023-04-28T04:21:27;6.80;99.90
19888;DHT22;10106;51.332;12.336;2023-04-28T04:23:52;6.90;99.90
19888;DHT22;10106;51.332;12.336;2023-04-28T04:26:18;7.00;99.90
19888;DHT22;10106;51.332;12.336;2023-04-28T04:28:43;7.00;99.90
19888;DHT22;10106;51.332;12.336;2023-04-28T04:31:09;7.00;99.90
19888;DHT22;10106;51.332;12.336;2023-04-28T04:33:34;7.10;99.90
19888;DHT22;10106;51.332;12.336;2023-04-28T04:36:01;7.20;99.90
19888;DHT22;10106;51.332;12.336;2023-04-28T04:38:27;7.30;99.90
19888;DHT22;10106;51.332;12.336;2023-04-28T04:40:52;7.30;99.90
19888;DHT22;10106;51.332;12.336;2023-04-28T04:43:18;7.40;99.90
19888;DHT22;10106;51.332;12.336;2023-04-28T04:45:43;7.40;99.90
19888;DHT22;10106;51.332;12.336;2023-04-28T04:48:10;7.40;99.90
19888;DHT22;10106;51.332;12.336;2023-04-28T04:50:35;7.30;99.90
19888;DHT22;10106;51.332;12.336;2023-04-28T04:53:01;7.40;99.90
19888;DHT22;10106;51.332;12.336;2023-04-28T04:55:26;7.50;99.90
19888;DHT22;10106;51.332;12.336;2023-04-28T04:57:52;7.50;99.90
19888;DHT22;10106;51.332;12.336;2023-04-28T05:07:56;7.90;99.90
19888;DHT22;10106;51.332;12.336;2023-04-28T05:10:23;8.00;99.90
19888;DHT22;10106;51.332;12.336;2023-04-28T05:12:48;8.10;99.90
19888;DHT22;10106;51.332;12.336;2023-04-28T05:15:14;8.10;99.90
19888;DHT22;10106;51.332;12.336;2023-04-28T05:17:39;8.20;99.90
19888;DHT22;10106;51.332;12.336;2023-04-28T05:20:05;8.30;99.90
19888;DHT22;10106;51.332;12.336;2023-04-28T05:22:31;8.30;99.90
19888;DHT22;10106;51.332;12.336;2023-04-28T05:24:56;8.40;99.90
19888;DHT22;10106;51.332;12.336;2023-04-28T05:27:22;8.50;99.90
19888;DHT22;10106;51.332;12.336;2023-04-28T05:29:48;8.60;99.90
19888;DHT22;10106;51.332;12.336;2023-04-28T05:32:13;8.70;99.90
19888;DHT22;10106;51.332;12.336;2023-04-28T05:34:39;8.70;99.90
19888;DHT22;10106;51.332;12.336;2023-04-28T05:37:04;8.70;99.90
19888;DHT22;10106;51.332;12.336;2023-04-28T05:39:30;8.80;99.90
19888;DHT22;10106;51.332;12.336;2023-04-28T05:41:58;8.90;99.90
19888;DHT22;10106;51.332;12.336;2023-04-28T05:44:24;9.00;99.90
19888;DHT22;10106;51.332;12.336;2023-04-28T05:46:49;9.10;99.90
19888;DHT22;10106;51.332;12.336;2023-04-28T05:49:15;9.30;99.90
19888;DHT22;10106;51.332;12.336;2023-04-28T05:51:41;9.30;99.90
19888;DHT22;10106;51.332;12.336;2023-04-28T05:54:06;9.50;99.90
19888;DHT22;10106;51.332;12.336;2023-04-28T05:56:32;9.80;99.90
19888;DHT22;10106;51.332;12.336;2023-04-28T05:58:58;9.90;99.90
19888;DHT22;10106;51.332;12.336;2023-04-28T06:01:25;10.10;99.90
19888;DHT22;10106;51.332;12.336;2023-04-28T06:03:51;10.20;99.90
19888;DHT22;10106;51.332;12.336;2023-04-28T06:06:18;10.40;99.90
19888;DHT22;10106;51.332;12.336;2023-04-28T06:08:43;10.90;99.50
19888;DHT22;10106;51.332;12.336;2023-04-28T06:11:11;10.90;99.40
19888;DHT22;10106;51.332;12.336;2023-04-28T06:13:36;10.90;98.90
19888;DHT22;10106;51.332;12.336;2023-04-28T06:16:02;10.80;98.80
19888;DHT22;10106;51.332;12.336;2023-04-28T06:18:29;10.70;98.80
19888;DHT22;10106;51.332;12.336;2023-04-28T06:20:57;10.60;99.30
19888;DHT22;10106;51.332;12.336;2023-04-28T06:23:23;11.00;99.30
19888;DHT22;10106;51.332;12.336;2023-04-28T06:25:48;11.50;98.70
19888;DHT22;10106;51.332;12.336;2023-04-28T06:28:14;12.10;98.00
19888;DHT22;10106;51.332;12.336;2023-04-28T06:30:40;12.80;97.40
19888;DHT22;10106;51.332;12.336;2023-04-28T06:33:06;13.90;94.80
19888;DHT22;10106;51.332;12.336;2023-04-28T06:35:32;13.80;93.40
19888;DHT22;10106;51.332;12.336;2023-04-28T06:38:01;13.80;93.50
19888;DHT22;10106;51.332;12.336;2023-04-28T06:40:28;13.70;92.80
19888;DHT22;10106;51.332;12.336;2023-04-28T06:42:53;13.40;92.80
19888;DHT22;10106;51.332;12.336;2023-04-28T06:45:19;13.30;93.00
19888;DHT22;10106;51.332;12.336;2023-04-28T06:47:45;13.00;93.40
19888;DHT22;10106;51.332;12.336;2023-04-28T06:50:11;12.40;93.70
19888;DHT22;10106;51.332;12.336;2023-04-28T06:52:36;12.30;94.10
19888;DHT22;10106;51.332;12.336;2023-04-28T06:55:06;12.10;94.40
19888;DHT22;10106;51.332;12.336;2023-04-28T06:57:32;11.90;94.50
19888;DHT22;10106;51.332;12.336;2023-04-28T06:59:58;12.00;94.90
19888;DHT22;10106;51.332;12.336;2023-04-28T07:02:23;12.10;95.00
19888;DHT22;10106;51.332;12.336;2023-04-28T07:04:49;11.90;95.30
19888;DHT22;10106;51.332;12.336;2023-04-28T07:07:15;12.00;95.40
19888;DHT22;10106;51.332;12.336;2023-04-28T07:09:40;12.30;95.40
19888;DHT22;10106;51.332;12.336;2023-04-28T07:12:06;12.70;95.20
19888;DHT22;10106;51.332;12.336;2023-04-28T07:14:32;12.60;94.90
19888;DHT22;10106;51.332;12.336;2023-04-28T07:16:58;12.30;95.20
19888;DHT22;10106;51.332;12.336;2023-04-28T07:19:23;12.10;95.70
19888;DHT22;10106;51.332;12.336;2023-04-28T07:21:49;12.50;95.80
19888;DHT22;10106;51.332;12.336;2023-04-28T07:24:15;12.60;95.40
19888;DHT22;10106;51.332;12.336;2023-04-28T07:26:41;12.90;95.20
19888;DHT22;10106;51.332;12.336;2023-04-28T07:29:07;13.10;95.20
19888;DHT22;10106;51.332;12.336;2023-04-28T07:31:33;13.40;95.10
19888;DHT22;10106;51.332;12.336;2023-04-28T07:33:59;13.60;94.30
19888;DHT22;10106;51.332;12.336;2023-04-28T07:36:25;13.60;94.40
19888;DHT22;10106;51.332;12.336;2023-04-28T07:38:51;13.60;94.50
19888;DHT22;10106;51.332;12.336;2023-04-28T07:41:17;13.90;93.90
19888;DHT22;10106;51.332;12.336;2023-04-28T07:43:43;14.40;94.00
19888;DHT22;10106;51.332;12.336;2023-04-28T07:46:09;14.90;93.00
19888;DHT22;10106;51.332;12.336;2023-04-28T07:48:35;15.40;92.70
19888;DHT22;10106;51.332;12.336;2023-04-28T07:51:00;15.70;91.80
19888;DHT22;10106;51.332;12.336;2023-04-28T07:53:26;16.00;90.80
19888;DHT22;10106;51.332;12.336;2023-04-28T07:55:53;15.90;90.90
19888;DHT22;10106;51.332;12.336;2023-04-28T07:58:19;15.50;90.90
19888;DHT22;10106;51.332;12.336;2023-04-28T08:00:45;15.90;91.40
19888;DHT22;10106;51.332;12.336;2023-04-28T08:03:11;16.40;90.30
19888;DHT22;10106;51.332;12.336;2023-04-28T08:05:38;16.50;90.40
19888;DHT22;10106;51.332;12.336;2023-04-28T08:08:04;16.70;88.80
19888;DHT22;10106;51.332;12.336;2023-04-28T08:10:29;16.40;87.60
19888;DHT22;10106;51.332;12.336;2023-04-28T08:12:55;16.40;90.00
19888;DHT22;10106;51.332;12.336;2023-04-28T08:15:21;16.40;88.70
19888;DHT22;10106;51.332;12.336;2023-04-28T08:17:46;16.40;88.80
19888;DHT22;10106;51.332;12.336;2023-04-28T08:20:12;16.70;87.10
19888;DHT22;10106;51.332;12.336;2023-04-28T08:22:40;16.80;86.20
19888;DHT22;10106;51.332;12.336;2023-04-28T08:25:06;16.50;86.10
19888;DHT22;10106;51.332;12.336;2023-04-28T08:27:32;16.30;87.20
19888;DHT22;10106;51.332;12.336;2023-04-28T08:29:59;15.60;87.30
19888;DHT22;10106;51.332;12.336;2023-04-28T08:32:24;15.50;90.00
19888;DHT22;10106;51.332;12.336;2023-04-28T08:34:50;15.10;90.30
19888;DHT22;10106;51.332;12.336;2023-04-28T08:37:16;14.70;90.60
19888;DHT22;10106;51.332;12.336;2023-04-28T08:39:42;14.40;91.30
19888;DHT22;10106;51.332;12.336;2023-04-28T08:42:08;14.30;91.80
19888;DHT22;10106;51.332;12.336;2023-04-28T08:44:38;14.00;92.00
19888;DHT22;10106;51.332;12.336;2023-04-28T08:47:11;14.00;92.80
19888;DHT22;10106;51.332;12.336;2023-04-28T08:49:37;13.90;93.70
19888;DHT22;10106;51.332;12.336;2023-04-28T08:52:12;14.00;94.10
19888;DHT22;10106;51.332;12.336;2023-04-28T08:54:39;14.00;94.90
19888;DHT22;10106;51.332;12.336;2023-04-28T08:57:08;14.00;94.50
19888;DHT22;10106;51.332;12.336;2023-04-28T08:59:38;14.20;95.70
19888;DHT22;10106;51.332;12.336;2023-04-28T09:02:04;14.30;96.10
19888;DHT22;10106;51.332;12.336;2023-04-28T09:04:30;14.20;96.40
19888;DHT22;10106;51.332;12.336;2023-04-28T09:06:56;14.10;97.10
19888;DHT22;10106;51.332;12.336;2023-04-28T09:09:26;14.00;98.20
19888;DHT22;10106;51.332;12.336;2023-04-28T09:11:55;13.70;98.30
19888;DHT22;10106;51.332;12.336;2023-04-28T09:14:22;13.60;99.60
19888;DHT22;10106;51.332;12.336;2023-04-28T09:16:49;13.70;99.90
19888;DHT22;10106;51.332;12.336;2023-04-28T09:19:16;13.60;99.90
19888;DHT22;10106;51.332;12.336;2023-04-28T09:26:50;13.90;99.90
19888;DHT22;10106;51.332;12.336;2023-04-28T09:29:16;13.80;99.90
19888;DHT22;10106;51.332;12.336;2023-04-28T09:31:42;13.80;99.90
19888;DHT22;10106;51.332;12.336;2023-04-28T09:34:08;13.90;99.90
19888;DHT22;10106;51.332;12.336;2023-04-28T09:36:36;14.10;99.90
19888;DHT22;10106;51.332;12.336;2023-04-28T09:39:02;14.50;99.90
19888;DHT22;10106;51.332;12.336;2023-04-28T09:41:38;14.50;99.90
19888;DHT22;10106;51.332;12.336;2023-04-28T09:46:36;14.30;99.90
19888;DHT22;10106;51.332;12.336;2023-04-28T09:49:05;14.30;99.90
19888;DHT22;10106;51.332;12.336;2023-04-28T09:51:31;14.00;99.90
19888;DHT22;10106;51.332;12.336;2023-04-28T09:53:59;14.00;99.90
19888;DHT22;10106;51.332;12.336;2023-04-28T09:56:27;13.90;99.90
19888;DHT22;10106;51.332;12.336;2023-04-28T09:58:56;13.90;99.90
19888;DHT22;10106;51.332;12.336;2023-04-28T10:01:24;14.20;99.90
19888;DHT22;10106;51.332;12.336;2023-04-28T10:03:52;14.30;99.90
19888;DHT22;10106;51.332;12.336;2023-04-28T10:06:19;14.30;99.90
19888;DHT22;10106;51.332;12.336;2023-04-28T10:08:45;14.00;99.90
19888;DHT22;10106;51.332;12.336;2023-04-28T10:11:14;13.90;99.90
19888;DHT22;10106;51.332;12.336;2023-04-28T10:13:42;13.80;99.90
19888;DHT22;10106;51.332;12.336;2023-04-28T10:16:09;13.70;99.90
19888;DHT22;10106;51.332;12.336;2023-04-28T10:18:36;13.50;99.90
19888;DHT22;10106;51.332;12.336;2023-04-28T10:21:03;13.50;99.90
19888;DHT22;10106;51.332;12.336;2023-04-28T10:24:05;13.40;99.90
19888;DHT22;10106;51.332;12.336;2023-04-28T10:26:23;13.60;99.90
19888;DHT22;10106;51.332;12.336;2023-04-28T10:28:54;13.80;99.90
19888;DHT22;10106;51.332;12.336;2023-04-28T10:31:21;13.80;99.90
19888;DHT22;10106;51.332;12.336;2023-04-28T10:33:48;14.10;99.90
19888;DHT22;10106;51.332;12.336;2023-04-28T10:36:46;14.30;99.90
19888;DHT22;10106;51.332;12.336;2023-04-28T10:39:12;14.60;99.90
19888;DHT22;10106;51.332;12.336;2023-04-28T10:41:37;14.30;99.90
19888;DHT22;10106;51.332;12.336;2023-04-28T10:47:03;14.40;99.90
19888;DHT22;10106;51.332;12.336;2023-04-28T10:55:29;14.60;99.90
19888;DHT22;10106;51.332;12.336;2023-04-28T11:00:44;14.20;99.90
19888;DHT22;10106;51.332;12.336;2023-04-28T11:03:39;14.00;99.90
19888;DHT22;10106;51.332;12.336;2023-04-28T11:06:28;13.80;99.90
19888;DHT22;10106;51.332;12.336;2023-04-28T11:17:01;13.10;99.90
19888;DHT22;10106;51.332;12.336;2023-04-28T11:19:30;13.00;99.90
19888;DHT22;10106;51.332;12.336;2023-04-28T11:21:58;13.00;99.90
19888;DHT22;10106;51.332;12.336;2023-04-28T11:24:24;12.90;99.90
19888;DHT22;10106;51.332;12.336;2023-04-28T11:26:50;12.80;99.90
19888;DHT22;10106;51.332;12.336;2023-04-28T11:29:17;12.80;99.90
19888;DHT22;10106;51.332;12.336;2023-04-28T11:31:49;12.90;99.90
19888;DHT22;10106;51.332;12.336;2023-04-28T11:34:19;13.00;99.90
19888;DHT22;10106;51.332;12.336;2023-04-28T11:36:45;13.20;99.90
19888;DHT22;10106;51.332;12.336;2023-04-28T11:39:12;13.40;99.90
19888;DHT22;10106;51.332;12.336;2023-04-28T11:41:39;13.60;99.90
19888;DHT22;10106;51.332;12.336;2023-04-28T11:46:35;13.70;99.90
19888;DHT22;10106;51.332;12.336;2023-04-28T11:49:04;13.80;99.90
19888;DHT22;10106;51.332;12.336;2023-04-28T11:51:33;13.70;99.90
19888;DHT22;10106;51.332;12.336;2023-04-28T11:54:00;13.80;99.90
19888;DHT22;10106;51.332;12.336;2023-04-28T11:56:27;13.80;99.90
19888;DHT22;10106;51.332;12.336;2023-04-28T11:59:07;14.00;99.90
19888;DHT22;10106;51.332;12.336;2023-04-28T12:01:34;14.60;99.90
19888;DHT22;10106;51.332;12.336;2023-04-28T12:04:08;15.30;99.90
19888;DHT22;10106;51.332;12.336;2023-04-28T12:06:34;15.70;99.90
19888;DHT22;10106;51.332;12.336;2023-04-28T12:09:00;15.90;99.90
19888;DHT22;10106;51.332;12.336;2023-04-28T12:11:29;15.70;99.90
19888;DHT22;10106;51.332;12.336;2023-04-28T12:14:02;16.30;99.90
19888;DHT22;10106;51.332;12.336;2023-04-28T12:16:39;16.80;99.90
19888;DHT22;10106;51.332;12.336;2023-04-28T12:19:09;17.00;99.90
19888;DHT22;10106;51.332;12.336;2023-04-28T12:21:36;16.90;99.90
19888;DHT22;10106;51.332;12.336;2023-04-28T12:24:14;17.10;99.90
19888;DHT22;10106;51.332;12.336;2023-04-28T12:26:40;17.30;99.90
19888;DHT22;10106;51.332;12.336;2023-04-28T12:29:06;17.00;99.90
19888;DHT22;10106;51.332;12.336;2023-04-28T12:31:32;16.90;99.90
19888;DHT22;10106;51.332;12.336;2023-04-28T12:33:57;16.80;99.90
19888;DHT22;10106;51.332;12.336;2023-04-28T12:36:23;16.80;99.90
19888;DHT22;10106;51.332;12.336;2023-04-28T12:38:49;16.40;99.90
19888;DHT22;10106;51.332;12.336;2023-04-28T12:41:14;16.20;99.90
19888;DHT22;10106;51.332;12.336;2023-04-28T12:43:40;15.90;99.90
19888;DHT22;10106;51.332;12.336;2023-04-28T12:46:08;16.00;99.90
19888;DHT22;10106;51.332;12.336;2023-04-28T12:48:36;15.50;99.90
19888;DHT22;10106;51.332;12.336;2023-04-28T12:51:02;15.60;99.90
19888;DHT22;10106;51.332;12.336;2023-04-28T12:53:28;15.50;99.90
19888;DHT22;10106;51.332;12.336;2023-04-28T12:55:54;15.70;99.90
19888;DHT22;10106;51.332;12.336;2023-04-28T12:58:20;15.90;99.90
19888;DHT22;10106;51.332;12.336;2023-04-28T13:00:45;16.00;99.90
19888;DHT22;10106;51.332;12.336;2023-04-28T13:03:11;16.10;99.90
19888;DHT22;10106;51.332;12.336;2023-04-28T13:05:37;15.90;99.90
19888;DHT22;10106;51.332;12.336;2023-04-28T13:08:06;15.70;99.90
19888;DHT22;10106;51.332;12.336;2023-04-28T13:10:33;15.70;99.90
19888;DHT22;10106;51.332;12.336;2023-04-28T13:12:59;15.90;99.90
19888;DHT22;10106;51.332;12.336;2023-04-28T13:15:25;15.90;99.90
19888;DHT22;10106;51.332;12.336;2023-04-28T13:17:51;15.90;99.90
19888;DHT22;10106;51.332;12.336;2023-04-28T13:20:17;16.00;99.90
19888;DHT22;10106;51.332;12.336;2023-04-28T13:22:42;15.90;99.90
19888;DHT22;10106;51.332;12.336;2023-04-28T13:25:08;15.70;99.90
19888;DHT22;10106;51.332;12.336;2023-04-28T13:27:35;15.50;99.90
19888;DHT22;10106;51.332;12.336;2023-04-28T13:30:01;15.60;99.90
19888;DHT22;10106;51.332;12.336;2023-04-28T13:32:32;15.40;99.90
19888;DHT22;10106;51.332;12.336;2023-04-28T13:34:57;15.40;99.90
19888;DHT22;10106;51.332;12.336;2023-04-28T13:37:23;15.40;99.90
19888;DHT22;10106;51.332;12.336;2023-04-28T13:39:49;15.30;99.90
19888;DHT22;10106;51.332;12.336;2023-04-28T13:42:14;15.30;99.90
19888;DHT22;10106;51.332;12.336;2023-04-28T13:44:40;15.40;99.90
19888;DHT22;10106;51.332;12.336;2023-04-28T13:47:06;15.10;99.90
19888;DHT22;10106;51.332;12.336;2023-04-28T13:49:34;15.10;99.90
19888;DHT22;10106;51.332;12.336;2023-04-28T13:52:01;15.00;99.90
19888;DHT22;10106;51.332;12.336;2023-04-28T13:54:28;15.00;99.90
19888;DHT22;10106;51.332;12.336;2023-04-28T13:56:54;15.10;99.90
19888;DHT22;10106;51.332;12.336;2023-04-28T13:59:20;15.10;99.90
19888;DHT22;10106;51.332;12.336;2023-04-28T14:01:45;15.20;99.90
19888;DHT22;10106;51.332;12.336;2023-04-28T14:04:11;15.40;99.90
19888;DHT22;10106;51.332;12.336;2023-04-28T14:06:37;15.50;99.90
19888;DHT22;10106;51.332;12.336;2023-04-28T14:09:03;15.40;99.90
19888;DHT22;10106;51.332;12.336;2023-04-28T14:11:28;15.40;99.90
19888;DHT22;10106;51.332;12.336;2023-04-28T14:13:54;15.20;99.90
19888;DHT22;10106;51.332;12.336;2023-04-28T14:16:20;15.20;99.90
19888;DHT22;10106;51.332;12.336;2023-04-28T14:18:45;15.20;99.90
19888;DHT22;10106;51.332;12.336;2023-04-28T14:21:11;15.10;99.90
19888;DHT22;10106;51.332;12.336;2023-04-28T14:23:37;15.10;99.90
19888;DHT22;10106;51.332;12.336;2023-04-28T14:26:03;15.10;99.90
19888;DHT22;10106;51.332;12.336;2023-04-28T14:28:29;15.10;99.90
19888;DHT22;10106;51.332;12.336;2023-04-28T14:30:55;15.10;99.90
19888;DHT22;10106;51.332;12.336;2023-04-28T14:33:20;15.10;99.90
19888;DHT22;10106;51.332;12.336;2023-04-28T14:35:46;15.10;99.90
19888;DHT22;10106;51.332;12.336;2023-04-28T14:38:13;14.90;99.90
19888;DHT22;10106;51.332;12.336;2023-04-28T14:40:38;15.00;99.90
19888;DHT22;10106;51.332;12.336;2023-04-28T14:43:04;15.00;99.90
19888;DHT22;10106;51.332;12.336;2023-04-28T14:45:30;15.30;99.90
19888;DHT22;10106;51.332;12.336;2023-04-28T14:47:56;15.30;99.90
19888;DHT22;10106;51.332;12.336;2023-04-28T14:50:22;15.40;99.90
19888;DHT22;10106;51.332;12.336;2023-04-28T14:52:48;15.40;99.90
19888;DHT22;10106;51.332;12.336;2023-04-28T14:55:14;15.40;99.90
19888;DHT22;10106;51.332;12.336;2023-04-28T14:57:39;15.20;99.90
19888;DHT22;10106;51.332;12.336;2023-04-28T15:00:06;15.10;99.90
19888;DHT22;10106;51.332;12.336;2023-04-28T15:02:32;15.00;99.90
19888;DHT22;10106;51.332;12.336;2023-04-28T15:04:58;14.90;99.90
19888;DHT22;10106;51.332;12.336;2023-04-28T15:07:24;15.00;99.90
19888;DHT22;10106;51.332;12.336;2023-04-28T15:09:56;15.10;99.90
19888;DHT22;10106;51.332;12.336;2023-04-28T15:12:22;14.90;99.90
19888;DHT22;10106;51.332;12.336;2023-04-28T15:14:48;14.80;99.90
19888;DHT22;10106;51.332;12.336;2023-04-28T15:17:14;14.70;99.90
19888;DHT22;10106;51.332;12.336;2023-04-28T15:19:41;14.60;99.90
19888;DHT22;10106;51.332;12.336;2023-04-28T15:22:07;14.60;99.90
19888;DHT22;10106;51.332;12.336;2023-04-28T15:24:33;14.60;99.90
19888;DHT22;10106;51.332;12.336;2023-04-28T15:26:58;14.50;99.90
19888;DHT22;10106;51.332;12.336;2023-04-28T15:29:24;14.50;99.90
19888;DHT22;10106;51.332;12.336;2023-04-28T15:31:49;14.50;99.90
19888;DHT22;10106;51.332;12.336;2023-04-28T15:34:15;14.50;99.90
19888;DHT22;10106;51.332;12.336;2023-04-28T15:36:42;14.50;99.90
19888;DHT22;10106;51.332;12.336;2023-04-28T15:39:08;14.50;99.90
19888;DHT22;10106;51.332;12.336;2023-04-28T15:41:34;14.50;99.90
19888;DHT22;10106;51.332;12.336;2023-04-28T15:44:01;14.50;99.90
19888;DHT22;10106;51.332;12.336;2023-04-28T15:46:27;14.40;99.90
19888;DHT22;10106;51.332;12.336;2023-04-28T15:48:53;14.40;99.90
19888;DHT22;10106;51.332;12.336;2023-04-28T15:51:19;14.40;99.90
19888;DHT22;10106;51.332;12.336;2023-04-28T15:53:45;14.40;99.90
19888;DHT22;10106;51.332;12.336;2023-04-28T15:56:10;14.40;99.90